sensor_id;sensor_type;location;lat;lon;timestamp;P1;durP1;ratioP1;P2;durP2;ratioP2
53971;SDS011;40530;53.062;6.078;2023-11-21T00:00:38;25.75;;;6.30;;
53971;SDS011;40530;53.062;6.078;2023-11-21T00:03:04;32.13;;;6.78;;
53971;SDS011;40530;53.062;6.078;2023-11-21T00:05:30;30.65;;;6.35;;
53971;SDS011;40530;53.062;6.078;2023-11-21T00:07:56;23.88;;;6.13;;
53971;SDS011;40530;53.062;6.078;2023-11-21T00:10:22;25.65;;;6.97;;
53971;SDS011;40530;53.062;6.078;2023-11-21T00:12:48;25.40;;;6.95;;
53971;SDS011;40530;53.062;6.078;2023-11-21T00:15:14;25.73;;;5.97;;
53971;SDS011;40530;53.062;6.078;2023-11-21T00:17:40;21.85;;;5.43;;
53971;SDS011;40530;53.062;6.078;2023-11-21T00:20:07;29.02;;;5.57;;
53971;SDS011;40530;53.062;6.078;2023-11-21T00:22:37;29.05;;;5.90;;
53971;SDS011;40530;53.062;6.078;2023-11-21T00:25:03;24.40;;;5.93;;
53971;SDS011;40530;53.062;6.078;2023-11-21T00:27:30;23.08;;;7.05;;
53971;SDS011;40530;53.062;6.078;2023-11-21T00:29:56;31.08;;;7.57;;
53971;SDS011;40530;53.062;6.078;2023-11-21T00:32:22;30.23;;;7.88;;
53971;SDS011;40530;53.062;6.078;2023-11-21T00:34:48;21.17;;;6.05;;
53971;SDS011;40530;53.062;6.078;2023-11-21T00:37:14;28.75;;;6.78;;
53971;SDS011;40530;53.062;6.078;2023-11-21T00:39:40;32.35;;;7.07;;
53971;SDS011;40530;53.062;6.078;2023-11-21T00:42:06;29.67;;;7.22;;
53971;SDS011;40530;53.062;6.078;2023-11-21T00:44:33;25.35;;;6.55;;
53971;SDS011;40530;53.062;6.078;2023-11-21T00:46:59;34.17;;;6.88;;
53971;SDS011;40530;53.062;6.078;2023-11-21T00:49:26;30.90;;;6.43;;
53971;SDS011;40530;53.062;6.078;2023-11-21T00:51:53;112.97;;;55.67;;
53971;SDS011;40530;53.062;6.078;2023-11-21T00:54:19;37.97;;;13.80;;
53971;SDS011;40530;53.062;6.078;2023-11-21T00:56:45;56.97;;;26.55;;
53971;SDS011;40530;53.062;6.078;2023-11-21T00:59:13;23.05;;;6.65;;
53971;SDS011;40530;53.062;6.078;2023-11-21T01:01:39;29.17;;;6.93;;
53971;SDS011;40530;53.062;6.078;2023-11-21T01:04:05;26.40;;;5.93;;
53971;SDS011;40530;53.062;6.078;2023-11-21T01:06:34;23.83;;;6.38;;
53971;SDS011;40530;53.062;6.078;2023-11-21T01:09:00;30.75;;;7.93;;
53971;SDS011;40530;53.062;6.078;2023-11-21T01:11:26;23.15;;;7.90;;
53971;SDS011;40530;53.062;6.078;2023-11-21T01:13:52;30.67;;;6.45;;
53971;SDS011;40530;53.062;6.078;2023-11-21T01:16:18;27.90;;;7.93;;
53971;SDS011;40530;53.062;6.078;2023-11-21T01:18:44;27.23;;;5.80;;
53971;SDS011;40530;53.062;6.078;2023-11-21T01:21:10;16.25;;;6.32;;
53971;SDS011;40530;53.062;6.078;2023-11-21T01:23:37;20.15;;;6.47;;
53971;SDS011;40530;53.062;6.078;2023-11-21T01:26:03;27.95;;;6.80;;
53971;SDS011;40530;53.062;6.078;2023-11-21T01:28:29;23.67;;;6.15;;
53971;SDS011;40530;53.062;6.078;2023-11-21T01:30:55;23.75;;;6.15;;
53971;SDS011;40530;53.062;6.078;2023-11-21T01:33:22;18.98;;;5.20;;
53971;SDS011;40530;53.062;6.078;2023-11-21T01:35:49;18.40;;;5.47;;
53971;SDS011;40530;53.062;6.078;2023-11-21T01:38:18;19.17;;;5.68;;
53971;SDS011;40530;53.062;6.078;2023-11-21T01:40:44;23.60;;;5.13;;
53971;SDS011;40530;53.062;6.078;2023-11-21T01:43:10;32.60;;;6.65;;
53971;SDS011;40530;53.062;6.078;2023-11-21T01:45:36;20.35;;;5.95;;
53971;SDS011;40530;53.062;6.078;2023-11-21T01:48:04;26.15;;;5.88;;
53971;SDS011;40530;53.062;6.078;2023-11-21T01:50:31;18.95;;;6.32;;
53971;SDS011;40530;53.062;6.078;2023-11-21T01:52:58;22.73;;;6.32;;
53971;SDS011;40530;53.062;6.078;2023-11-21T01:55:25;18.58;;;5.38;;
53971;SDS011;40530;53.062;6.078;2023-11-21T01:57:52;25.33;;;5.90;;
53971;SDS011;40530;53.062;6.078;2023-11-21T02:00:18;17.17;;;5.72;;
53971;SDS011;40530;53.062;6.078;2023-11-21T02:02:45;19.25;;;5.80;;
53971;SDS011;40530;53.062;6.078;2023-11-21T02:05:12;20.63;;;5.65;;
53971;SDS011;40530;53.062;6.078;2023-11-21T02:07:39;13.82;;;5.60;;
53971;SDS011;40530;53.062;6.078;2023-11-21T02:10:06;11.43;;;5.07;;
53971;SDS011;40530;53.062;6.078;2023-11-21T02:12:32;15.93;;;5.30;;
53971;SDS011;40530;53.062;6.078;2023-11-21T02:15:00;14.55;;;4.85;;
53971;SDS011;40530;53.062;6.078;2023-11-21T02:17:27;15.13;;;5.55;;
53971;SDS011;40530;53.062;6.078;2023-11-21T02:19:53;22.77;;;5.25;;
53971;SDS011;40530;53.062;6.078;2023-11-21T02:22:21;12.27;;;5.20;;
53971;SDS011;40530;53.062;6.078;2023-11-21T02:24:51;11.85;;;4.80;;
53971;SDS011;40530;53.062;6.078;2023-11-21T02:27:17;14.30;;;5.32;;
53971;SDS011;40530;53.062;6.078;2023-11-21T02:29:46;12.88;;;5.53;;
53971;SDS011;40530;53.062;6.078;2023-11-21T02:32:13;12.57;;;4.57;;
53971;SDS011;40530;53.062;6.078;2023-11-21T02:34:39;12.95;;;5.22;;
53971;SDS011;40530;53.062;6.078;2023-11-21T02:37:05;17.40;;;6.25;;
53971;SDS011;40530;53.062;6.078;2023-11-21T02:39:31;10.75;;;5.10;;
53971;SDS011;40530;53.062;6.078;2023-11-21T02:41:57;12.73;;;5.35;;
53971;SDS011;40530;53.062;6.078;2023-11-21T02:44:23;11.98;;;5.22;;
53971;SDS011;40530;53.062;6.078;2023-11-21T02:46:49;17.13;;;5.78;;
53971;SDS011;40530;53.062;6.078;2023-11-21T02:49:15;13.25;;;4.97;;
53971;SDS011;40530;53.062;6.078;2023-11-21T02:51:41;15.68;;;5.68;;
53971;SDS011;40530;53.062;6.078;2023-11-21T02:54:08;13.27;;;4.70;;
53971;SDS011;40530;53.062;6.078;2023-11-21T02:56:34;21.30;;;5.82;;
53971;SDS011;40530;53.062;6.078;2023-11-21T02:59:00;15.50;;;6.28;;
53971;SDS011;40530;53.062;6.078;2023-11-21T03:01:26;13.85;;;6.10;;
53971;SDS011;40530;53.062;6.078;2023-11-21T03:03:53;16.40;;;5.72;;
53971;SDS011;40530;53.062;6.078;2023-11-21T03:06:20;11.35;;;5.05;;
53971;SDS011;40530;53.062;6.078;2023-11-21T03:08:47;14.27;;;5.25;;
53971;SDS011;40530;53.062;6.078;2023-11-21T03:11:13;15.60;;;5.68;;
53971;SDS011;40530;53.062;6.078;2023-11-21T03:13:40;15.13;;;5.70;;
53971;SDS011;40530;53.062;6.078;2023-11-21T03:16:09;14.68;;;5.18;;
53971;SDS011;40530;53.062;6.078;2023-11-21T03:18:35;16.67;;;6.28;;
53971;SDS011;40530;53.062;6.078;2023-11-21T03:21:02;12.45;;;5.20;;
53971;SDS011;40530;53.062;6.078;2023-11-21T03:23:28;20.58;;;5.93;;
53971;SDS011;40530;53.062;6.078;2023-11-21T03:25:54;11.70;;;5.43;;
53971;SDS011;40530;53.062;6.078;2023-11-21T03:28:20;16.60;;;5.13;;
53971;SDS011;40530;53.062;6.078;2023-11-21T03:30:46;12.35;;;5.32;;
53971;SDS011;40530;53.062;6.078;2023-11-21T03:33:12;14.10;;;5.43;;
53971;SDS011;40530;53.062;6.078;2023-11-21T03:35:38;15.25;;;4.97;;
53971;SDS011;40530;53.062;6.078;2023-11-21T03:38:06;11.93;;;5.28;;
53971;SDS011;40530;53.062;6.078;2023-11-21T03:40:33;12.20;;;6.00;;
53971;SDS011;40530;53.062;6.078;2023-11-21T03:42:59;18.23;;;5.75;;
53971;SDS011;40530;53.062;6.078;2023-11-21T03:45:25;16.35;;;6.20;;
53971;SDS011;40530;53.062;6.078;2023-11-21T03:47:51;18.00;;;6.22;;
53971;SDS011;40530;53.062;6.078;2023-11-21T03:50:17;12.77;;;6.32;;
53971;SDS011;40530;53.062;6.078;2023-11-21T03:52:43;18.77;;;6.72;;
53971;SDS011;40530;53.062;6.078;2023-11-21T03:55:09;19.83;;;7.40;;
53971;SDS011;40530;53.062;6.078;2023-11-21T03:57:35;16.73;;;6.35;;
53971;SDS011;40530;53.062;6.078;2023-11-21T04:00:02;18.52;;;7.07;;
53971;SDS011;40530;53.062;6.078;2023-11-21T04:02:29;13.05;;;5.97;;
53971;SDS011;40530;53.062;6.078;2023-11-21T04:04:56;18.33;;;7.03;;
53971;SDS011;40530;53.062;6.078;2023-11-21T04:07:22;10.65;;;6.15;;
53971;SDS011;40530;53.062;6.078;2023-11-21T04:09:48;17.88;;;6.75;;
53971;SDS011;40530;53.062;6.078;2023-11-21T04:12:15;12.60;;;6.20;;
53971;SDS011;40530;53.062;6.078;2023-11-21T04:14:41;16.33;;;6.72;;
53971;SDS011;40530;53.062;6.078;2023-11-21T04:17:07;20.70;;;8.68;;
53971;SDS011;40530;53.062;6.078;2023-11-21T04:19:33;25.40;;;7.53;;
53971;SDS011;40530;53.062;6.078;2023-11-21T04:21:59;18.92;;;6.97;;
53971;SDS011;40530;53.062;6.078;2023-11-21T04:24:25;18.20;;;7.22;;
53971;SDS011;40530;53.062;6.078;2023-11-21T04:26:51;21.33;;;7.45;;
53971;SDS011;40530;53.062;6.078;2023-11-21T04:29:17;19.98;;;7.60;;
53971;SDS011;40530;53.062;6.078;2023-11-21T04:31:43;23.58;;;8.18;;
53971;SDS011;40530;53.062;6.078;2023-11-21T04:34:09;16.30;;;7.55;;
53971;SDS011;40530;53.062;6.078;2023-11-21T04:36:35;17.85;;;6.65;;
53971;SDS011;40530;53.062;6.078;2023-11-21T04:39:01;14.57;;;6.60;;
53971;SDS011;40530;53.062;6.078;2023-11-21T04:41:27;14.77;;;7.05;;
53971;SDS011;40530;53.062;6.078;2023-11-21T04:43:53;16.42;;;8.45;;
53971;SDS011;40530;53.062;6.078;2023-11-21T04:46:19;22.38;;;8.20;;
53971;SDS011;40530;53.062;6.078;2023-11-21T04:48:46;18.80;;;7.97;;
53971;SDS011;40530;53.062;6.078;2023-11-21T04:51:12;21.67;;;8.40;;
53971;SDS011;40530;53.062;6.078;2023-11-21T04:53:39;20.65;;;9.45;;
53971;SDS011;40530;53.062;6.078;2023-11-21T04:56:05;17.58;;;9.07;;
53971;SDS011;40530;53.062;6.078;2023-11-21T04:58:31;17.55;;;9.68;;
53971;SDS011;40530;53.062;6.078;2023-11-21T05:00:58;19.25;;;8.75;;
53971;SDS011;40530;53.062;6.078;2023-11-21T05:03:24;22.35;;;9.50;;
53971;SDS011;40530;53.062;6.078;2023-11-21T05:05:50;20.50;;;9.50;;
53971;SDS011;40530;53.062;6.078;2023-11-21T05:08:17;18.90;;;9.50;;
53971;SDS011;40530;53.062;6.078;2023-11-21T05:10:45;18.90;;;9.65;;
53971;SDS011;40530;53.062;6.078;2023-11-21T05:13:11;21.20;;;10.35;;
53971;SDS011;40530;53.062;6.078;2023-11-21T05:15:37;21.05;;;9.93;;
53971;SDS011;40530;53.062;6.078;2023-11-21T05:18:04;21.25;;;11.48;;
53971;SDS011;40530;53.062;6.078;2023-11-21T05:20:31;25.83;;;12.63;;
53971;SDS011;40530;53.062;6.078;2023-11-21T05:22:58;25.58;;;12.45;;
53971;SDS011;40530;53.062;6.078;2023-11-21T05:25:24;24.83;;;13.25;;
53971;SDS011;40530;53.062;6.078;2023-11-21T05:27:50;28.20;;;12.15;;
53971;SDS011;40530;53.062;6.078;2023-11-21T05:30:16;22.60;;;12.60;;
53971;SDS011;40530;53.062;6.078;2023-11-21T05:32:42;31.90;;;12.48;;
53971;SDS011;40530;53.062;6.078;2023-11-21T05:35:08;44.25;;;14.98;;
53971;SDS011;40530;53.062;6.078;2023-11-21T05:37:37;29.60;;;13.57;;
53971;SDS011;40530;53.062;6.078;2023-11-21T05:40:05;30.17;;;13.20;;
53971;SDS011;40530;53.062;6.078;2023-11-21T05:42:31;30.13;;;11.60;;
53971;SDS011;40530;53.062;6.078;2023-11-21T05:44:57;30.95;;;12.60;;
53971;SDS011;40530;53.062;6.078;2023-11-21T05:47:40;27.05;;;11.27;;
53971;SDS011;40530;53.062;6.078;2023-11-21T05:50:06;33.22;;;11.38;;
53971;SDS011;40530;53.062;6.078;2023-11-21T05:52:37;24.63;;;10.50;;
53971;SDS011;40530;53.062;6.078;2023-11-21T05:55:04;29.27;;;11.18;;
53971;SDS011;40530;53.062;6.078;2023-11-21T05:57:34;25.60;;;11.50;;
53971;SDS011;40530;53.062;6.078;2023-11-21T06:00:06;34.58;;;10.68;;
53971;SDS011;40530;53.062;6.078;2023-11-21T06:02:48;23.27;;;9.75;;
53971;SDS011;40530;53.062;6.078;2023-11-21T06:05:16;21.45;;;10.00;;
53971;SDS011;40530;53.062;6.078;2023-11-21T06:07:43;27.65;;;10.07;;
53971;SDS011;40530;53.062;6.078;2023-11-21T06:10:10;21.67;;;9.90;;
53971;SDS011;40530;53.062;6.078;2023-11-21T06:12:37;21.23;;;11.18;;
53971;SDS011;40530;53.062;6.078;2023-11-21T06:15:05;23.88;;;10.77;;
53971;SDS011;40530;53.062;6.078;2023-11-21T06:17:36;20.83;;;10.45;;
53971;SDS011;40530;53.062;6.078;2023-11-21T06:20:04;24.98;;;10.77;;
53971;SDS011;40530;53.062;6.078;2023-11-21T06:22:37;25.83;;;10.20;;
53971;SDS011;40530;53.062;6.078;2023-11-21T06:25:03;26.00;;;11.23;;
53971;SDS011;40530;53.062;6.078;2023-11-21T06:27:31;17.27;;;10.30;;
53971;SDS011;40530;53.062;6.078;2023-11-21T06:29:58;24.67;;;11.02;;
53971;SDS011;40530;53.062;6.078;2023-11-21T06:32:24;23.13;;;11.18;;
53971;SDS011;40530;53.062;6.078;2023-11-21T06:34:51;24.45;;;12.07;;
53971;SDS011;40530;53.062;6.078;2023-11-21T06:37:19;24.75;;;11.82;;
53971;SDS011;40530;53.062;6.078;2023-11-21T06:39:48;25.98;;;11.85;;
53971;SDS011;40530;53.062;6.078;2023-11-21T06:42:17;21.27;;;11.18;;
53971;SDS011;40530;53.062;6.078;2023-11-21T06:44:44;27.90;;;12.75;;
53971;SDS011;40530;53.062;6.078;2023-11-21T06:47:10;27.85;;;12.50;;
53971;SDS011;40530;53.062;6.078;2023-11-21T06:49:37;37.00;;;17.52;;
53971;SDS011;40530;53.062;6.078;2023-11-21T06:52:03;31.90;;;14.70;;
53971;SDS011;40530;53.062;6.078;2023-11-21T06:54:30;28.20;;;12.48;;
53971;SDS011;40530;53.062;6.078;2023-11-21T06:56:57;27.35;;;12.65;;
53971;SDS011;40530;53.062;6.078;2023-11-21T06:59:23;29.73;;;13.45;;
53971;SDS011;40530;53.062;6.078;2023-11-21T07:01:50;24.75;;;12.27;;
53971;SDS011;40530;53.062;6.078;2023-11-21T07:04:16;23.13;;;12.15;;
53971;SDS011;40530;53.062;6.078;2023-11-21T07:06:43;24.73;;;13.48;;
53971;SDS011;40530;53.062;6.078;2023-11-21T07:09:09;24.35;;;12.20;;
53971;SDS011;40530;53.062;6.078;2023-11-21T07:11:37;29.77;;;12.98;;
53971;SDS011;40530;53.062;6.078;2023-11-21T07:14:03;29.20;;;12.73;;
53971;SDS011;40530;53.062;6.078;2023-11-21T07:16:35;26.13;;;13.68;;
53971;SDS011;40530;53.062;6.078;2023-11-21T07:19:03;26.52;;;12.40;;
53971;SDS011;40530;53.062;6.078;2023-11-21T07:21:31;25.58;;;13.10;;
53971;SDS011;40530;53.062;6.078;2023-11-21T07:23:58;28.30;;;12.75;;
53971;SDS011;40530;53.062;6.078;2023-11-21T07:26:24;23.27;;;12.13;;
53971;SDS011;40530;53.062;6.078;2023-11-21T07:28:51;28.35;;;13.25;;
53971;SDS011;40530;53.062;6.078;2023-11-21T07:31:17;27.08;;;15.05;;
53971;SDS011;40530;53.062;6.078;2023-11-21T07:33:44;25.90;;;12.93;;
53971;SDS011;40530;53.062;6.078;2023-11-21T07:36:12;27.23;;;12.65;;
53971;SDS011;40530;53.062;6.078;2023-11-21T07:38:38;25.60;;;11.88;;
53971;SDS011;40530;53.062;6.078;2023-11-21T07:41:05;29.67;;;12.95;;
53971;SDS011;40530;53.062;6.078;2023-11-21T07:43:33;25.98;;;12.00;;
53971;SDS011;40530;53.062;6.078;2023-11-21T07:46:03;29.10;;;14.52;;
53971;SDS011;40530;53.062;6.078;2023-11-21T07:48:30;36.22;;;15.30;;
53971;SDS011;40530;53.062;6.078;2023-11-21T07:50:56;35.47;;;16.25;;
53971;SDS011;40530;53.062;6.078;2023-11-21T07:53:24;32.97;;;15.13;;
53971;SDS011;40530;53.062;6.078;2023-11-21T07:55:54;27.77;;;13.57;;
53971;SDS011;40530;53.062;6.078;2023-11-21T07:58:20;25.23;;;13.75;;
53971;SDS011;40530;53.062;6.078;2023-11-21T08:00:46;24.02;;;13.18;;
53971;SDS011;40530;53.062;6.078;2023-11-21T08:03:13;23.85;;;13.57;;
53971;SDS011;40530;53.062;6.078;2023-11-21T08:05:39;23.92;;;12.80;;
53971;SDS011;40530;53.062;6.078;2023-11-21T08:08:05;21.67;;;12.43;;
53971;SDS011;40530;53.062;6.078;2023-11-21T08:10:31;20.58;;;12.30;;
53971;SDS011;40530;53.062;6.078;2023-11-21T08:12:57;22.98;;;12.27;;
53971;SDS011;40530;53.062;6.078;2023-11-21T08:15:23;24.75;;;11.98;;
53971;SDS011;40530;53.062;6.078;2023-11-21T08:17:50;23.35;;;11.95;;
53971;SDS011;40530;53.062;6.078;2023-11-21T08:20:16;24.85;;;14.25;;
53971;SDS011;40530;53.062;6.078;2023-11-21T08:22:43;32.78;;;18.63;;
53971;SDS011;40530;53.062;6.078;2023-11-21T08:25:09;30.13;;;16.75;;
53971;SDS011;40530;53.062;6.078;2023-11-21T08:27:35;28.95;;;17.10;;
53971;SDS011;40530;53.062;6.078;2023-11-21T08:30:02;29.98;;;16.85;;
53971;SDS011;40530;53.062;6.078;2023-11-21T08:32:29;30.05;;;17.02;;
53971;SDS011;40530;53.062;6.078;2023-11-21T08:34:57;26.70;;;17.60;;
53971;SDS011;40530;53.062;6.078;2023-11-21T08:37:23;29.50;;;18.83;;
53971;SDS011;40530;53.062;6.078;2023-11-21T08:39:49;31.80;;;17.67;;
53971;SDS011;40530;53.062;6.078;2023-11-21T08:42:17;27.77;;;18.17;;
53971;SDS011;40530;53.062;6.078;2023-11-21T08:44:44;30.25;;;19.10;;
53971;SDS011;40530;53.062;6.078;2023-11-21T08:47:10;30.58;;;19.63;;
53971;SDS011;40530;53.062;6.078;2023-11-21T08:49:36;30.25;;;17.58;;
53971;SDS011;40530;53.062;6.078;2023-11-21T08:52:03;27.90;;;18.88;;
53971;SDS011;40530;53.062;6.078;2023-11-21T08:54:30;30.20;;;17.73;;
53971;SDS011;40530;53.062;6.078;2023-11-21T08:56:56;26.88;;;18.30;;
53971;SDS011;40530;53.062;6.078;2023-11-21T08:59:25;26.67;;;17.50;;
53971;SDS011;40530;53.062;6.078;2023-11-21T09:01:51;29.95;;;17.27;;
53971;SDS011;40530;53.062;6.078;2023-11-21T09:04:17;25.25;;;16.98;;
53971;SDS011;40530;53.062;6.078;2023-11-21T09:06:43;28.98;;;18.00;;
53971;SDS011;40530;53.062;6.078;2023-11-21T09:09:09;30.75;;;17.38;;
53971;SDS011;40530;53.062;6.078;2023-11-21T09:11:36;26.85;;;18.85;;
53971;SDS011;40530;53.062;6.078;2023-11-21T09:14:03;24.55;;;17.48;;
53971;SDS011;40530;53.062;6.078;2023-11-21T09:16:29;29.50;;;18.08;;
53971;SDS011;40530;53.062;6.078;2023-11-21T09:18:55;25.00;;;16.42;;
53971;SDS011;40530;53.062;6.078;2023-11-21T09:21:21;25.90;;;17.50;;
53971;SDS011;40530;53.062;6.078;2023-11-21T09:23:48;29.65;;;17.48;;
53971;SDS011;40530;53.062;6.078;2023-11-21T09:26:14;29.63;;;19.05;;
53971;SDS011;40530;53.062;6.078;2023-11-21T09:28:41;28.08;;;17.92;;
53971;SDS011;40530;53.062;6.078;2023-11-21T09:31:11;31.50;;;19.33;;
53971;SDS011;40530;53.062;6.078;2023-11-21T09:33:38;33.50;;;20.42;;
53971;SDS011;40530;53.062;6.078;2023-11-21T09:36:05;30.20;;;18.83;;
53971;SDS011;40530;53.062;6.078;2023-11-21T09:38:31;29.83;;;17.63;;
53971;SDS011;40530;53.062;6.078;2023-11-21T09:40:57;26.35;;;17.90;;
53971;SDS011;40530;53.062;6.078;2023-11-21T09:43:23;28.23;;;17.70;;
53971;SDS011;40530;53.062;6.078;2023-11-21T09:45:56;24.95;;;16.77;;
53971;SDS011;40530;53.062;6.078;2023-11-21T09:48:25;25.23;;;15.60;;
53971;SDS011;40530;53.062;6.078;2023-11-21T09:50:51;20.73;;;15.80;;
53971;SDS011;40530;53.062;6.078;2023-11-21T09:53:20;23.33;;;16.27;;
53971;SDS011;40530;53.062;6.078;2023-11-21T09:55:47;32.70;;;19.75;;
53971;SDS011;40530;53.062;6.078;2023-11-21T09:58:15;22.75;;;15.52;;
53971;SDS011;40530;53.062;6.078;2023-11-21T10:00:42;18.45;;;13.60;;
53971;SDS011;40530;53.062;6.078;2023-11-21T10:03:09;26.50;;;15.60;;
53971;SDS011;40530;53.062;6.078;2023-11-21T10:05:36;16.15;;;12.90;;
53971;SDS011;40530;53.062;6.078;2023-11-21T10:08:03;15.88;;;11.95;;
53971;SDS011;40530;53.062;6.078;2023-11-21T10:10:31;12.88;;;10.45;;
53971;SDS011;40530;53.062;6.078;2023-11-21T10:12:58;12.35;;;9.73;;
53971;SDS011;40530;53.062;6.078;2023-11-21T10:15:28;13.02;;;11.07;;
53971;SDS011;40530;53.062;6.078;2023-11-21T10:17:55;13.35;;;10.00;;
53971;SDS011;40530;53.062;6.078;2023-11-21T10:20:21;12.23;;;9.18;;
53971;SDS011;40530;53.062;6.078;2023-11-21T10:22:49;11.82;;;9.80;;
53971;SDS011;40530;53.062;6.078;2023-11-21T10:25:16;15.85;;;9.32;;
53971;SDS011;40530;53.062;6.078;2023-11-21T10:27:48;12.32;;;9.77;;
53971;SDS011;40530;53.062;6.078;2023-11-21T10:30:17;11.07;;;9.85;;
53971;SDS011;40530;53.062;6.078;2023-11-21T10:32:43;13.13;;;10.35;;
53971;SDS011;40530;53.062;6.078;2023-11-21T10:35:10;11.23;;;10.00;;
53971;SDS011;40530;53.062;6.078;2023-11-21T10:37:37;16.25;;;11.07;;
53971;SDS011;40530;53.062;6.078;2023-11-21T10:40:09;11.85;;;10.45;;
53971;SDS011;40530;53.062;6.078;2023-11-21T10:42:39;13.38;;;10.00;;
53971;SDS011;40530;53.062;6.078;2023-11-21T10:45:05;13.68;;;10.60;;
53971;SDS011;40530;53.062;6.078;2023-11-21T10:47:39;17.13;;;11.13;;
53971;SDS011;40530;53.062;6.078;2023-11-21T10:50:05;15.07;;;11.82;;
53971;SDS011;40530;53.062;6.078;2023-11-21T10:52:33;16.92;;;10.70;;
53971;SDS011;40530;53.062;6.078;2023-11-21T10:55:01;14.23;;;10.63;;
53971;SDS011;40530;53.062;6.078;2023-11-21T10:57:28;13.32;;;10.05;;
53971;SDS011;40530;53.062;6.078;2023-11-21T10:59:55;17.88;;;11.20;;
53971;SDS011;40530;53.062;6.078;2023-11-21T11:02:24;14.45;;;9.88;;
53971;SDS011;40530;53.062;6.078;2023-11-21T11:04:53;12.60;;;10.85;;
53971;SDS011;40530;53.062;6.078;2023-11-21T11:07:25;14.32;;;10.55;;
53971;SDS011;40530;53.062;6.078;2023-11-21T11:09:52;13.95;;;9.75;;
53971;SDS011;40530;53.062;6.078;2023-11-21T11:12:18;12.38;;;9.35;;
53971;SDS011;40530;53.062;6.078;2023-11-21T11:14:44;11.68;;;9.15;;
53971;SDS011;40530;53.062;6.078;2023-11-21T11:17:11;15.85;;;9.65;;
53971;SDS011;40530;53.062;6.078;2023-11-21T11:19:38;11.50;;;10.07;;
53971;SDS011;40530;53.062;6.078;2023-11-21T11:22:50;12.85;;;9.52;;
53971;SDS011;40530;53.062;6.078;2023-11-21T11:27:51;12.13;;;9.98;;
53971;SDS011;40530;53.062;6.078;2023-11-21T11:33:25;16.08;;;9.18;;
53971;SDS011;40530;53.062;6.078;2023-11-21T11:36:02;11.23;;;8.75;;
53971;SDS011;40530;53.062;6.078;2023-11-21T11:38:33;15.95;;;9.85;;
53971;SDS011;40530;53.062;6.078;2023-11-21T11:41:03;22.30;;;12.30;;
53971;SDS011;40530;53.062;6.078;2023-11-21T11:43:30;10.52;;;8.27;;
53971;SDS011;40530;53.062;6.078;2023-11-21T11:46:09;9.45;;;7.65;;
53971;SDS011;40530;53.062;6.078;2023-11-21T11:48:37;10.75;;;7.18;;
53971;SDS011;40530;53.062;6.078;2023-11-21T11:51:10;7.80;;;6.32;;
53971;SDS011;40530;53.062;6.078;2023-11-21T11:53:43;9.05;;;7.15;;
53971;SDS011;40530;53.062;6.078;2023-11-21T11:58:47;7.90;;;6.45;;
53971;SDS011;40530;53.062;6.078;2023-11-21T12:01:13;9.40;;;6.38;;
53971;SDS011;40530;53.062;6.078;2023-11-21T12:03:39;9.73;;;6.43;;
53971;SDS011;40530;53.062;6.078;2023-11-21T12:06:05;9.98;;;5.75;;
53971;SDS011;40530;53.062;6.078;2023-11-21T12:08:32;9.38;;;6.10;;
53971;SDS011;40530;53.062;6.078;2023-11-21T12:10:58;7.75;;;5.60;;
53971;SDS011;40530;53.062;6.078;2023-11-21T12:13:24;9.25;;;5.80;;
53971;SDS011;40530;53.062;6.078;2023-11-21T12:15:51;11.30;;;6.45;;
53971;SDS011;40530;53.062;6.078;2023-11-21T12:18:19;9.07;;;5.90;;
53971;SDS011;40530;53.062;6.078;2023-11-21T12:20:45;11.68;;;5.72;;
53971;SDS011;40530;53.062;6.078;2023-11-21T12:23:13;6.80;;;5.75;;
53971;SDS011;40530;53.062;6.078;2023-11-21T12:25:41;14.18;;;7.47;;
53971;SDS011;40530;53.062;6.078;2023-11-21T12:28:08;8.27;;;5.65;;
53971;SDS011;40530;53.062;6.078;2023-11-21T12:30:34;6.75;;;5.13;;
53971;SDS011;40530;53.062;6.078;2023-11-21T12:33:01;8.48;;;4.88;;
53971;SDS011;40530;53.062;6.078;2023-11-21T12:35:29;6.07;;;4.75;;
53971;SDS011;40530;53.062;6.078;2023-11-21T12:37:56;6.80;;;4.93;;
53971;SDS011;40530;53.062;6.078;2023-11-21T12:40:22;6.90;;;4.72;;
53971;SDS011;40530;53.062;6.078;2023-11-21T12:42:51;6.07;;;4.45;;
53971;SDS011;40530;53.062;6.078;2023-11-21T12:47:45;9.02;;;4.15;;
53971;SDS011;40530;53.062;6.078;2023-11-21T12:50:11;4.75;;;3.88;;
53971;SDS011;40530;53.062;6.078;2023-11-21T12:52:46;6.78;;;4.85;;
53971;SDS011;40530;53.062;6.078;2023-11-21T12:55:19;6.85;;;4.75;;
53971;SDS011;40530;53.062;6.078;2023-11-21T12:57:49;6.35;;;4.78;;
53971;SDS011;40530;53.062;6.078;2023-11-21T13:00:33;6.25;;;4.82;;
53971;SDS011;40530;53.062;6.078;2023-11-21T13:03:02;8.80;;;4.70;;
53971;SDS011;40530;53.062;6.078;2023-11-21T13:05:29;7.72;;;5.07;;
53971;SDS011;40530;53.062;6.078;2023-11-21T13:07:56;6.72;;;5.25;;
53971;SDS011;40530;53.062;6.078;2023-11-21T13:10:23;8.73;;;5.70;;
53971;SDS011;40530;53.062;6.078;2023-11-21T13:12:52;7.47;;;5.63;;
53971;SDS011;40530;53.062;6.078;2023-11-21T13:15:19;5.93;;;4.82;;
53971;SDS011;40530;53.062;6.078;2023-11-21T13:17:46;7.93;;;5.07;;
53971;SDS011;40530;53.062;6.078;2023-11-21T13:20:12;9.32;;;5.40;;
53971;SDS011;40530;53.062;6.078;2023-11-21T13:22:45;11.13;;;5.50;;
53971;SDS011;40530;53.062;6.078;2023-11-21T13:25:11;9.13;;;5.57;;
53971;SDS011;40530;53.062;6.078;2023-11-21T13:27:39;5.47;;;4.88;;
53971;SDS011;40530;53.062;6.078;2023-11-21T13:30:08;9.02;;;6.35;;
53971;SDS011;40530;53.062;6.078;2023-11-21T13:32:36;15.43;;;10.40;;
53971;SDS011;40530;53.062;6.078;2023-11-21T13:35:02;13.15;;;5.97;;
53971;SDS011;40530;53.062;6.078;2023-11-21T13:37:33;11.13;;;6.00;;
53971;SDS011;40530;53.062;6.078;2023-11-21T13:39:59;8.32;;;4.80;;
53971;SDS011;40530;53.062;6.078;2023-11-21T13:42:28;8.18;;;4.80;;
53971;SDS011;40530;53.062;6.078;2023-11-21T13:44:58;6.93;;;4.80;;
53971;SDS011;40530;53.062;6.078;2023-11-21T13:47:24;6.32;;;4.88;;
53971;SDS011;40530;53.062;6.078;2023-11-21T13:49:54;6.35;;;4.30;;
53971;SDS011;40530;53.062;6.078;2023-11-21T13:52:20;5.80;;;4.80;;
53971;SDS011;40530;53.062;6.078;2023-11-21T13:54:51;5.90;;;4.50;;
53971;SDS011;40530;53.062;6.078;2023-11-21T13:57:17;5.30;;;4.13;;
53971;SDS011;40530;53.062;6.078;2023-11-21T13:59:45;6.32;;;4.65;;
53971;SDS011;40530;53.062;6.078;2023-11-21T14:02:11;6.03;;;4.72;;
53971;SDS011;40530;53.062;6.078;2023-11-21T14:04:42;6.68;;;4.75;;
53971;SDS011;40530;53.062;6.078;2023-11-21T14:07:20;7.80;;;4.43;;
53971;SDS011;40530;53.062;6.078;2023-11-21T14:10:03;5.47;;;4.65;;
53971;SDS011;40530;53.062;6.078;2023-11-21T14:12:32;7.38;;;5.20;;
53971;SDS011;40530;53.062;6.078;2023-11-21T14:14:59;7.70;;;5.45;;
53971;SDS011;40530;53.062;6.078;2023-11-21T14:17:26;6.80;;;5.07;;
53971;SDS011;40530;53.062;6.078;2023-11-21T14:19:52;9.55;;;5.82;;
53971;SDS011;40530;53.062;6.078;2023-11-21T14:22:20;7.68;;;5.93;;
53971;SDS011;40530;53.062;6.078;2023-11-21T14:24:47;8.88;;;5.70;;
53971;SDS011;40530;53.062;6.078;2023-11-21T14:27:15;17.65;;;9.23;;
53971;SDS011;40530;53.062;6.078;2023-11-21T14:29:41;10.07;;;7.10;;
53971;SDS011;40530;53.062;6.078;2023-11-21T14:32:09;9.60;;;6.55;;
53971;SDS011;40530;53.062;6.078;2023-11-21T14:34:36;8.25;;;6.18;;
53971;SDS011;40530;53.062;6.078;2023-11-21T14:37:03;8.32;;;6.30;;
53971;SDS011;40530;53.062;6.078;2023-11-21T14:39:29;9.52;;;6.00;;
53971;SDS011;40530;53.062;6.078;2023-11-21T14:41:55;7.93;;;5.63;;